Time;durP1;ratioP1;P1;durP2;ratioP2;P2;SDS_P1;SDS_P2;PMS_P1;PMS_P2;Temp;Humidity;BMP_temperature;BMP_pressure;BME280_temperature;BME280_humidity;BME280_pressure;Samples;Min_cycle;Max_cycle;Signal;HPM_P1;HPM_P2
2023/05/12 00:02:25;;;;;;;6.82;2.75;;;17.20;99.90;;;;;;5092716;28;20782;-83
2023/05/12 00:04:57;;;;;;;9.20;3.08;;;17.20;99.90;;;;;;5095387;28;20229;-84
2023/05/12 00:07:28;;;;;;;5.20;2.75;;;17.20;99.90;;;;;;5092215;28;20274;-83
2023/05/12 00:09:59;;;;;;;6.45;2.75;;;17.30;99.90;;;;;;5094300;28;20226;-82
2023/05/12 00:12:30;;;;;;;6.60;2.65;;;17.40;99.90;;;;;;5091973;28;20202;-81
2023/05/12 00:15:02;;;;;;;4.80;2.40;;;17.50;99.90;;;;;;5093931;28;20196;-82
2023/05/12 00:17:36;;;;;;;7.00;2.90;;;17.70;99.90;;;;;;5091358;28;20257;-83
2023/05/12 00:20:11;;;;;;;8.18;3.03;;;17.50;99.90;;;;;;5093668;28;20250;-83
2023/05/12 00:22:43;;;;;;;8.70;2.72;;;17.70;99.90;;;;;;5094306;28;20232;-82
2023/05/12 00:25:14;;;;;;;3.92;2.28;;;17.80;99.90;;;;;;5087603;28;20195;-82
2023/05/12 00:27:45;;;;;;;9.35;3.05;;;17.80;99.90;;;;;;5112880;28;20226;-81
2023/05/12 00:30:16;;;;;;;6.47;2.60;;;17.90;99.90;;;;;;5113035;28;20203;-82
2023/05/12 00:32:49;;;;;;;9.13;2.83;;;18.00;99.90;;;;;;5095212;28;20683;-82
2023/05/12 00:35:21;;;;;;;5.47;2.90;;;18.00;99.90;;;;;;5091020;28;20206;-82
2023/05/12 00:37:52;;;;;;;9.27;2.90;;;18.20;99.90;;;;;;5092444;28;20211;-82
2023/05/12 00:40:23;;;;;;;8.75;2.80;;;18.30;99.90;;;;;;5078364;28;20204;-82
2023/05/12 00:42:54;;;;;;;5.97;2.28;;;18.40;99.90;;;;;;5087931;28;20191;-81
2023/05/12 00:45:25;;;;;;;6.53;2.40;;;18.50;99.90;;;;;;5096196;28;20192;-82
2023/05/12 00:47:58;;;;;;;5.95;2.35;;;18.60;99.90;;;;;;5093798;28;20213;-83
2023/05/12 00:50:30;;;;;;;8.65;2.70;;;18.70;99.90;;;;;;5092758;28;20645;-82
2023/05/12 00:53:02;;;;;;;8.70;2.45;;;18.80;99.90;;;;;;5085711;28;20188;-83
2023/05/12 00:55:34;;;;;;;4.22;2.33;;;18.70;99.90;;;;;;5090071;28;20191;-83
2023/05/12 00:58:05;;;;;;;4.80;2.30;;;18.90;99.90;;;;;;5089903;28;20222;-81
2023/05/12 01:00:36;;;;;;;4.65;2.30;;;19.00;99.90;;;;;;5089369;28;20634;-81
2023/05/12 01:03:10;;;;;;;6.88;2.38;;;19.10;99.90;;;;;;5093425;28;20206;-82
2023/05/12 01:05:49;;;;;;;4.40;2.00;;;19.10;99.90;;;;;;5090669;28;20202;-82
2023/05/12 01:08:22;;;;;;;9.15;2.22;;;19.10;99.90;;;;;;5090213;28;20199;-82
2023/05/12 01:10:53;;;;;;;8.30;2.30;;;19.20;99.90;;;;;;5090360;28;20325;-82
2023/05/12 01:13:24;;;;;;;5.53;2.10;;;19.30;99.90;;;;;;5093376;28;20202;-83
2023/05/12 01:15:57;;;;;;;3.97;2.10;;;19.40;99.90;;;;;;5089730;28;20274;-84
2023/05/12 01:18:31;;;;;;;3.22;1.80;;;19.50;99.90;;;;;;5092194;28;20222;-82
2023/05/12 01:21:03;;;;;;;5.28;2.05;;;19.70;99.90;;;;;;5102388;28;20230;-83
2023/05/12 01:23:40;;;;;;;5.03;2.00;;;19.70;99.90;;;;;;5096561;28;20205;-83
2023/05/12 01:26:15;;;;;;;4.80;2.00;;;19.80;99.90;;;;;;5090516;28;20660;-82
2023/05/12 01:28:48;;;;;;;5.60;1.88;;;20.00;99.90;;;;;;5074753;28;20195;-83
2023/05/12 01:31:19;;;;;;;5.63;2.28;;;20.10;99.90;;;;;;5084917;28;20226;-83
2023/05/12 01:33:51;;;;;;;4.72;1.85;;;20.00;99.90;;;;;;5110421;28;20183;-84
2023/05/12 01:36:22;;;;;;;4.93;2.10;;;20.20;99.90;;;;;;5109959;28;20191;-83
2023/05/12 01:38:53;;;;;;;7.65;2.15;;;20.30;99.90;;;;;;5082085;28;20225;-83
2023/05/12 01:41:27;;;;;;;5.68;2.17;;;20.40;99.90;;;;;;5094229;28;20191;-84
2023/05/12 01:43:58;;;;;;;6.55;2.05;;;20.40;99.90;;;;;;5093570;28;20253;-81
2023/05/12 01:46:29;;;;;;;7.38;1.67;;;20.40;99.90;;;;;;5082842;28;20199;-82
2023/05/12 01:49:00;;;;;;;4.95;1.95;;;20.40;99.90;;;;;;5076796;28;20200;-83
2023/05/12 01:51:32;;;;;;;3.65;1.90;;;20.40;99.90;;;;;;5087385;28;20202;-83
2023/05/12 01:54:05;;;;;;;3.25;1.70;;;20.40;99.90;;;;;;5079967;28;20703;-83
2023/05/12 01:56:40;;;;;;;4.55;1.90;;;20.60;99.90;;;;;;5094602;28;20224;-83
2023/05/12 01:59:14;;;;;;;4.72;1.40;;;20.60;99.90;;;;;;5097467;28;20219;-83
2023/05/12 02:01:45;;;;;;;3.40;1.55;;;20.80;99.90;;;;;;5086725;28;20192;-83
2023/05/12 02:04:18;;;;;;;4.93;1.80;;;20.80;99.90;;;;;;5094448;28;20199;-84
2023/05/12 02:06:49;;;;;;;4.88;1.77;;;20.80;99.90;;;;;;5086688;28;20283;-82
2023/05/12 02:09:21;;;;;;;4.95;1.70;;;21.00;99.90;;;;;;5089373;28;20658;-83
2023/05/12 02:11:57;;;;;;;3.72;1.55;;;21.00;99.90;;;;;;5086926;28;20191;-82
2023/05/12 02:14:28;;;;;;;4.45;1.60;;;21.00;99.90;;;;;;5088486;28;20202;-84
2023/05/12 02:16:59;;;;;;;4.28;1.75;;;21.10;99.90;;;;;;5088055;28;20195;-83
2023/05/12 02:19:30;;;;;;;4.15;1.67;;;21.30;99.90;;;;;;5089386;28;20219;-84
2023/05/12 02:22:02;;;;;;;4.38;1.50;;;21.40;99.90;;;;;;5091423;28;20563;-83
2023/05/12 02:24:33;;;;;;;4.28;1.52;;;21.50;99.90;;;;;;5088336;28;20245;-84
2023/05/12 02:27:06;;;;;;;9.60;1.88;;;21.50;99.90;;;;;;5091422;28;20202;-83
2023/05/12 02:29:37;;;;;;;3.90;1.60;;;21.50;99.90;;;;;;5070388;28;20561;-83
2023/05/12 02:32:09;;;;;;;3.70;1.58;;;21.50;99.90;;;;;;5074089;28;20199;-83
2023/05/12 02:34:40;;;;;;;5.15;1.50;;;21.60;99.90;;;;;;5087525;28;20214;-83
2023/05/12 02:37:11;;;;;;;3.85;1.70;;;21.60;99.90;;;;;;5077626;28;20203;-82
2023/05/12 02:39:42;;;;;;;6.35;1.40;;;21.70;99.90;;;;;;5091944;28;20267;-83
2023/05/12 02:42:15;;;;;;;3.88;1.48;;;21.90;99.90;;;;;;5102794;28;20254;-82
2023/05/12 02:44:46;;;;;;;4.05;1.70;;;22.00;99.90;;;;;;5088419;28;20192;-81
2023/05/12 02:47:18;;;;;;;3.35;1.40;;;22.10;99.90;;;;;;5062524;28;20199;-83
2023/05/12 02:49:49;;;;;;;2.95;1.45;;;22.20;99.90;;;;;;5074600;28;20204;-83
2023/05/12 02:52:20;;;;;;;6.15;1.38;;;22.30;99.90;;;;;;5092213;28;20209;-83
2023/05/12 02:54:52;;;;;;;2.20;1.40;;;22.30;99.90;;;;;;5095822;28;20670;-83
2023/05/12 02:57:30;;;;;;;3.53;1.15;;;22.40;99.90;;;;;;5093162;28;20213;-83
2023/05/12 03:00:03;;;;;;;3.05;1.50;;;22.50;99.90;;;;;;5093143;28;20272;-83
2023/05/12 03:02:34;;;;;;;2.70;1.30;;;22.40;99.90;;;;;;5079633;28;20253;-84
2023/05/12 03:05:06;;;;;;;3.50;1.20;;;22.50;99.90;;;;;;5072315;28;20192;-83
2023/05/12 03:07:37;;;;;;;4.78;1.10;;;22.50;99.90;;;;;;5077192;28;20274;-83
2023/05/12 03:10:10;;;;;;;5.50;1.85;;;22.70;99.90;;;;;;5090748;28;20223;-82
2023/05/12 03:12:43;;;;;;;4.68;1.52;;;22.70;99.90;;;;;;5090670;28;20242;-83
2023/05/12 03:15:16;;;;;;;3.40;1.60;;;22.80;99.90;;;;;;5073510;28;20206;-81
2023/05/12 03:17:47;;;;;;;4.88;1.63;;;22.80;99.90;;;;;;5084263;28;20573;-82
2023/05/12 03:20:18;;;;;;;6.60;1.65;;;22.80;99.90;;;;;;5072904;28;20689;-81
2023/05/12 03:22:49;;;;;;;3.95;1.67;;;22.80;99.90;;;;;;5094501;28;20205;-83
2023/05/12 03:25:20;;;;;;;5.18;1.88;;;22.80;99.90;;;;;;5097354;28;20202;-82
2023/05/12 03:27:53;;;;;;;6.47;2.00;;;22.80;99.90;;;;;;5092148;28;20206;-82
2023/05/12 03:30:24;;;;;;;4.15;1.60;;;22.80;99.90;;;;;;5092429;28;20218;-83
2023/05/12 03:32:56;;;;;;;3.83;1.50;;;22.70;99.90;;;;;;5090793;28;20206;-83
2023/05/12 03:35:27;;;;;;;3.90;1.65;;;22.60;99.90;;;;;;5093388;28;20758;-82
2023/05/12 03:38:02;;;;;;;2.95;1.50;;;22.60;99.90;;;;;;5090791;28;20195;-85
2023/05/12 03:40:34;;;;;;;5.25;1.67;;;22.60;99.90;;;;;;5100118;28;20205;-83
2023/05/12 03:43:07;;;;;;;7.50;2.08;;;22.50;99.90;;;;;;5098330;28;20204;-83
2023/05/12 03:45:38;;;;;;;5.32;1.98;;;22.40;99.90;;;;;;5095766;28;20179;-83
2023/05/12 03:48:09;;;;;;;6.03;1.80;;;22.30;99.90;;;;;;5094153;28;20199;-84
2023/05/12 03:50:41;;;;;;;7.88;1.85;;;22.40;99.90;;;;;;5105040;28;20221;-82
2023/05/12 03:53:13;;;;;;;4.68;1.77;;;22.30;99.90;;;;;;5082693;28;20207;-81
2023/05/12 03:55:45;;;;;;;7.25;2.03;;;22.30;99.90;;;;;;5092669;28;20202;-82
2023/05/12 03:58:18;;;;;;;5.63;1.88;;;22.40;99.90;;;;;;5088164;28;20199;-83
2023/05/12 04:00:50;;;;;;;4.53;1.88;;;22.20;99.90;;;;;;5090888;28;20199;-82
2023/05/12 04:03:21;;;;;;;5.40;1.77;;;22.30;99.90;;;;;;5093829;28;20708;-83
2023/05/12 04:05:52;;;;;;;6.85;2.00;;;22.20;99.90;;;;;;5093283;28;20210;-83
2023/05/12 04:08:23;;;;;;;6.05;1.90;;;22.30;99.90;;;;;;5093702;28;20650;-85
2023/05/12 04:10:58;;;;;;;5.68;1.40;;;22.20;99.90;;;;;;5091373;28;20191;-82
2023/05/12 04:13:34;;;;;;;6.63;1.83;;;22.20;99.90;;;;;;5090141;28;20253;-84
2023/05/12 04:16:06;;;;;;;7.53;1.98;;;22.20;99.90;;;;;;5090399;28;20321;-84
2023/05/12 04:18:37;;;;;;;5.25;1.70;;;22.10;99.90;;;;;;5092859;28;20223;-84
2023/05/12 04:21:09;;;;;;;10.15;2.17;;;22.10;99.90;;;;;;5079973;28;20242;-83
2023/05/12 04:23:40;;;;;;;8.25;1.70;;;22.10;99.90;;;;;;5080027;28;20219;-83
2023/05/12 04:26:11;;;;;;;5.47;1.60;;;22.10;99.90;;;;;;5072440;28;20200;-84
2023/05/12 04:28:44;;;;;;;3.72;1.60;;;22.00;99.90;;;;;;5053164;28;20207;-84
2023/05/12 04:31:15;;;;;;;7.32;2.00;;;22.00;99.90;;;;;;5053154;28;20201;-83
2023/05/12 04:33:46;;;;;;;5.68;1.65;;;22.00;99.90;;;;;;5068777;28;20198;-82
2023/05/12 04:36:17;;;;;;;5.70;1.70;;;22.00;99.90;;;;;;5072410;28;20655;-83
2023/05/12 04:38:49;;;;;;;5.97;1.70;;;22.00;99.90;;;;;;5072304;28;20299;-82
2023/05/12 04:41:20;;;;;;;5.30;1.75;;;21.90;99.90;;;;;;5072616;28;20200;-83
2023/05/12 04:43:53;;;;;;;6.00;1.98;;;21.90;99.90;;;;;;5072708;28;20275;-83
2023/05/12 04:46:24;;;;;;;6.22;1.90;;;22.00;99.90;;;;;;5072210;28;20192;-83
2023/05/12 04:48:55;;;;;;;7.53;1.75;;;21.90;99.90;;;;;;5072561;28;20313;-83
2023/05/12 04:51:27;;;;;;;6.03;1.65;;;21.90;99.90;;;;;;5072447;28;20200;-83
2023/05/12 04:53:58;;;;;;;5.30;1.50;;;21.90;99.90;;;;;;5072782;28;20192;-83
2023/05/12 04:56:29;;;;;;;7.65;1.65;;;21.80;99.90;;;;;;5072965;28;20690;-83
2023/05/12 04:59:02;;;;;;;5.05;1.50;;;21.80;99.90;;;;;;5084783;28;20242;-82
2023/05/12 05:01:33;;;;;;;2.97;1.33;;;21.70;99.90;;;;;;5072216;28;20223;-83
2023/05/12 05:04:04;;;;;;;3.90;1.50;;;21.70;99.90;;;;;;5073329;28;20651;-83
2023/05/12 05:06:35;;;;;;;3.17;1.50;;;21.70;99.90;;;;;;5072138;28;20202;-83
2023/05/12 05:09:08;;;;;;;6.07;1.50;;;21.70;99.90;;;;;;5072270;28;20192;-84
2023/05/12 05:11:39;;;;;;;6.68;1.42;;;21.70;99.90;;;;;;5071749;28;20715;-82
2023/05/12 05:14:12;;;;;;;5.03;1.50;;;21.70;99.90;;;;;;5074558;28;20210;-83
2023/05/12 05:16:44;;;;;;;4.30;1.38;;;21.70;99.90;;;;;;5072484;28;20204;-83
2023/05/12 05:19:15;;;;;;;7.00;1.70;;;21.70;99.90;;;;;;5081201;28;20219;-83
2023/05/12 05:21:47;;;;;;;4.82;1.52;;;21.60;99.90;;;;;;5091163;28;20234;-83
2023/05/12 05:24:18;;;;;;;5.40;1.70;;;21.60;99.90;;;;;;5071897;28;20771;-83
2023/05/12 05:26:49;;;;;;;4.22;1.80;;;21.60;99.90;;;;;;5073322;28;20188;-83
2023/05/12 05:29:22;;;;;;;7.75;1.90;;;21.60;99.90;;;;;;5073708;28;20550;-83
2023/05/12 05:31:53;;;;;;;5.95;1.70;;;21.60;99.90;;;;;;5073586;28;20200;-83
2023/05/12 05:34:25;;;;;;;3.45;1.42;;;21.60;99.90;;;;;;5085678;28;20210;-83
2023/05/12 05:36:56;;;;;;;3.47;1.40;;;21.60;99.90;;;;;;5103461;28;20551;-83
2023/05/12 05:39:29;;;;;;;5.57;1.67;;;21.60;99.90;;;;;;5090226;28;20314;-83
2023/05/12 05:42:00;;;;;;;6.63;1.55;;;21.50;99.90;;;;;;5083372;28;20192;-82
2023/05/12 05:44:33;;;;;;;3.40;1.58;;;21.50;99.90;;;;;;5074586;28;20235;-82
2023/05/12 05:47:04;;;;;;;5.53;1.83;;;21.60;99.90;;;;;;5077831;28;20210;-83
2023/05/12 05:49:35;;;;;;;5.10;1.80;;;21.60;99.90;;;;;;5074068;28;20196;-81
2023/05/12 05:52:08;;;;;;;6.13;1.65;;;21.60;99.90;;;;;;5079806;28;20198;-82
2023/05/12 05:54:40;;;;;;;5.25;1.88;;;21.60;99.90;;;;;;5092950;28;20207;-82
2023/05/12 05:57:11;;;;;;;4.55;1.35;;;21.60;99.90;;;;;;5092914;28;20247;-83
2023/05/12 05:59:44;;;;;;;5.82;1.58;;;21.70;99.90;;;;;;5092411;28;20693;-83
2023/05/12 06:02:21;;;;;;;7.30;1.67;;;21.60;99.90;;;;;;5094004;28;20260;-82
2023/05/12 06:04:53;;;;;;;5.93;1.75;;;21.70;99.90;;;;;;5083608;28;20192;-82
2023/05/12 06:07:24;;;;;;;5.75;1.60;;;21.70;99.90;;;;;;5081250;28;20200;-83
2023/05/12 06:09:56;;;;;;;8.85;2.03;;;21.70;99.90;;;;;;5086398;28;20203;-84
2023/05/12 06:12:28;;;;;;;5.55;1.90;;;21.80;99.90;;;;;;5093083;28;20191;-84
2023/05/12 06:15:03;;;;;;;6.13;1.80;;;21.90;99.90;;;;;;5092283;28;20217;-84
2023/05/12 06:17:34;;;;;;;4.97;1.63;;;21.90;99.90;;;;;;5092561;28;20195;-84
2023/05/12 06:20:05;;;;;;;6.35;1.70;;;22.00;99.90;;;;;;5086511;28;20239;-84
2023/05/12 06:22:37;;;;;;;4.82;1.50;;;22.00;99.90;;;;;;5091943;28;20192;-84
2023/05/12 06:25:09;;;;;;;4.60;1.40;;;22.00;99.90;;;;;;5091575;28;20199;-84
2023/05/12 06:27:40;;;;;;;4.80;1.80;;;22.00;99.90;;;;;;5052189;28;20193;-83
2023/05/12 06:30:14;;;;;;;5.80;1.52;;;21.90;99.90;;;;;;5051281;28;20192;-83
2023/05/12 06:32:45;;;;;;;5.90;1.90;;;21.90;99.90;;;;;;5052654;28;20201;-83
2023/05/12 06:35:17;;;;;;;4.57;1.80;;;21.80;99.90;;;;;;5051545;28;20283;-83
2023/05/12 06:37:49;;;;;;;6.40;2.13;;;21.70;99.90;;;;;;5051028;28;20215;-83
2023/05/12 06:40:20;;;;;;;9.25;1.75;;;21.60;99.90;;;;;;5057580;28;20747;-82
2023/05/12 06:42:52;;;;;;;8.20;1.67;;;21.50;99.90;;;;;;5071929;28;20208;-84
2023/05/12 06:45:25;;;;;;;4.55;1.63;;;21.40;99.90;;;;;;5070832;28;20192;-84
2023/05/12 06:47:59;;;;;;;8.25;1.60;;;21.30;99.90;;;;;;5063574;28;20203;-82
2023/05/12 06:50:30;;;;;;;4.40;1.60;;;21.20;99.90;;;;;;5070993;28;20559;-83
2023/05/12 06:53:01;;;;;;;5.28;1.85;;;21.10;99.90;;;;;;5071532;28;20188;-82
2023/05/12 06:55:32;;;;;;;5.00;1.70;;;20.90;99.90;;;;;;5071026;28;20203;-83
2023/05/12 06:58:03;;;;;;;3.40;1.40;;;20.90;99.90;;;;;;5070483;28;20188;-83
2023/05/12 07:00:36;;;;;;;3.75;1.50;;;20.80;99.90;;;;;;5064436;28;20227;-83
2023/05/12 07:03:10;;;;;;;5.80;1.88;;;20.70;99.90;;;;;;5070993;28;20196;-83
2023/05/12 07:05:41;;;;;;;7.00;1.63;;;20.60;99.90;;;;;;5071095;28;20196;-84
2023/05/12 07:08:12;;;;;;;3.63;1.50;;;20.60;99.90;;;;;;5070810;28;20207;-83
2023/05/12 07:10:43;;;;;;;5.28;1.73;;;20.50;99.90;;;;;;5071074;28;20655;-83
2023/05/12 07:13:14;;;;;;;5.10;1.70;;;20.40;99.90;;;;;;5079767;28;20204;-83
2023/05/12 07:15:47;;;;;;;5.45;1.88;;;20.40;99.90;;;;;;5077745;28;20210;-83
2023/05/12 07:18:19;;;;;;;4.95;1.80;;;20.30;99.90;;;;;;5088339;28;20226;-83
2023/05/12 07:20:54;;;;;;;3.53;1.70;;;20.30;99.90;;;;;;5084198;28;20245;-83
2023/05/12 07:26:43;;;;;;;4.28;1.90;;;20.10;99.90;;;;;;5081047;28;20209;-81
2023/05/12 07:29:15;;;;;;;6.47;1.88;;;20.10;99.90;;;;;;5111996;28;20206;-83
2023/05/12 07:31:48;;;;;;;4.70;1.73;;;20.00;99.90;;;;;;5111684;28;20195;-82
2023/05/12 07:34:20;;;;;;;5.75;1.70;;;20.00;99.90;;;;;;5110486;28;20649;-82
2023/05/12 07:36:53;;;;;;;5.50;2.00;;;20.00;99.90;;;;;;5114866;28;20205;-82
2023/05/12 07:39:25;;;;;;;6.28;1.88;;;19.90;99.90;;;;;;5115659;28;20201;-82
2023/05/12 07:41:58;;;;;;;3.60;1.60;;;19.90;99.90;;;;;;5105123;28;20191;-82
2023/05/12 07:44:29;;;;;;;5.40;1.85;;;19.90;99.90;;;;;;5095064;28;20199;-81
2023/05/12 07:47:02;;;;;;;3.97;1.60;;;19.80;99.90;;;;;;5095272;28;20207;-82
2023/05/12 07:49:33;;;;;;;4.95;1.83;;;19.80;99.90;;;;;;5095478;28;20664;-82
2023/05/12 07:52:05;;;;;;;7.20;1.83;;;19.80;99.90;;;;;;5089149;28;20199;-83
2023/05/12 07:54:36;;;;;;;6.43;1.60;;;19.70;99.90;;;;;;5094828;28;20207;-83
2023/05/12 07:57:07;;;;;;;6.78;1.80;;;19.70;99.90;;;;;;5095208;28;20217;-83
2023/05/12 07:59:39;;;;;;;4.22;1.85;;;19.70;99.90;;;;;;5095060;28;20720;-83
2023/05/12 08:02:12;;;;;;;8.27;2.40;;;19.70;99.90;;;;;;5094706;28;20199;-84
2023/05/12 08:04:43;;;;;;;6.13;2.00;;;19.60;99.90;;;;;;5094826;28;20570;-83
2023/05/12 08:07:14;;;;;;;5.00;1.65;;;19.60;99.90;;;;;;5094902;28;20576;-83
2023/05/12 08:09:45;;;;;;;6.63;1.88;;;19.60;99.90;;;;;;5094190;28;20290;-82
2023/05/12 08:12:16;;;;;;;5.05;1.83;;;19.50;99.90;;;;;;5096556;28;20202;-82
2023/05/12 08:14:47;;;;;;;6.05;1.70;;;19.60;99.90;;;;;;5094186;28;20202;-83
2023/05/12 08:17:20;;;;;;;5.88;2.35;;;19.50;99.90;;;;;;5094736;28;20202;-83
2023/05/12 08:19:52;;;;;;;63.08;38.88;;;19.50;99.90;;;;;;5102175;28;20240;-83
2023/05/12 08:22:23;;;;;;;95.70;57.20;;;19.40;99.90;;;;;;5118762;28;20201;-83
2023/05/12 08:24:54;;;;;;;45.47;29.20;;;19.40;99.90;;;;;;5114342;28;20198;-84
2023/05/12 08:27:25;;;;;;;30.27;19.70;;;19.40;99.90;;;;;;5116158;28;20400;-82
2023/05/12 08:29:56;;;;;;;19.05;13.35;;;19.40;99.90;;;;;;5114858;28;20542;-83
2023/05/12 08:32:30;;;;;;;14.00;9.60;;;19.40;99.90;;;;;;5114762;28;20201;-83
2023/05/12 08:35:02;;;;;;;9.48;5.25;;;19.30;99.90;;;;;;5113907;28;20562;-83
2023/05/12 08:37:33;;;;;;;6.55;3.67;;;19.30;99.90;;;;;;5113963;28;20565;-82
2023/05/12 08:40:05;;;;;;;7.45;2.25;;;19.30;99.90;;;;;;5104704;28;20207;-83
2023/05/12 08:42:44;;;;;;;5.30;2.10;;;19.30;99.90;;;;;;5107345;28;20207;-82
2023/05/12 08:45:15;;;;;;;4.82;1.80;;;19.30;99.90;;;;;;5113468;28;20202;-83
2023/05/12 08:47:49;;;;;;;4.85;1.70;;;19.30;99.90;;;;;;5113227;28;20277;-85
2023/05/12 08:50:23;;;;;;;7.47;2.30;;;19.30;99.90;;;;;;5112968;28;20677;-83
2023/05/12 08:52:54;;;;;;;5.95;2.08;;;19.30;99.90;;;;;;5113074;28;20225;-83
2023/05/12 08:55:28;;;;;;;7.35;2.22;;;19.30;99.90;;;;;;5112742;28;20199;-83
2023/05/12 08:58:00;;;;;;;7.53;2.28;;;19.30;99.90;;;;;;5112731;28;20195;-83
2023/05/12 09:00:33;;;;;;;6.07;2.10;;;19.30;99.90;;;;;;5092357;28;20235;-84
2023/05/12 09:03:08;;;;;;;5.47;1.90;;;19.30;99.90;;;;;;5092195;28;20211;-83
2023/05/12 09:05:41;;;;;;;5.35;2.25;;;19.30;99.90;;;;;;5091990;28;20704;-84
2023/05/12 09:08:13;;;;;;;7.38;3.25;;;19.30;99.90;;;;;;5092349;28;20601;-83
2023/05/12 09:10:45;;;;;;;10.10;4.18;;;19.30;99.90;;;;;;5092320;28;20199;-84
2023/05/12 09:13:18;;;;;;;7.00;3.90;;;19.30;99.90;;;;;;5092805;28;20199;-82
2023/05/12 09:15:52;;;;;;;9.77;4.78;;;19.30;99.90;;;;;;5092957;28;20206;-82
2023/05/12 09:18:25;;;;;;;9.70;4.30;;;19.30;99.90;;;;;;5092157;28;20195;-82
2023/05/12 09:20:58;;;;;;;7.22;2.78;;;19.30;99.90;;;;;;5091759;28;20231;-82
2023/05/12 09:23:29;;;;;;;7.20;2.65;;;19.20;99.90;;;;;;5113057;28;20202;-83
2023/05/12 09:26:03;;;;;;;7.18;2.20;;;19.20;99.90;;;;;;5112642;28;20198;-83
2023/05/12 09:28:41;;;;;;;6.93;2.25;;;19.20;99.90;;;;;;5122637;28;20194;-82
2023/05/12 09:31:22;;;;;;;5.00;1.88;;;19.20;99.90;;;;;;5120365;28;20269;-83
2023/05/12 09:33:55;;;;;;;3.33;1.88;;;19.30;99.90;;;;;;5098930;28;20209;-83
2023/05/12 09:36:27;;;;;;;6.95;2.40;;;19.20;99.90;;;;;;5093777;28;20583;-83
2023/05/12 09:39:05;;;;;;;4.95;2.15;;;19.20;99.90;;;;;;5091975;28;20195;-83
2023/05/12 09:41:39;;;;;;;6.68;2.60;;;19.20;99.90;;;;;;5095505;28;20221;-83
2023/05/12 09:44:11;;;;;;;5.15;2.38;;;19.20;99.90;;;;;;5092882;28;20700;-82
2023/05/12 09:46:42;;;;;;;3.63;2.15;;;19.10;99.90;;;;;;5091956;28;20199;-82
2023/05/12 09:49:15;;;;;;;6.82;2.70;;;19.20;99.90;;;;;;5092891;28;20621;-82
2023/05/12 09:51:46;;;;;;;6.95;2.65;;;19.10;99.90;;;;;;5114073;28;20259;-83
2023/05/12 09:54:28;;;;;;;7.82;3.13;;;19.10;99.90;;;;;;5091822;28;20672;-82
2023/05/12 09:57:01;;;;;;;6.32;2.85;;;19.10;99.90;;;;;;5091296;28;20202;-84
2023/05/12 09:59:34;;;;;;;7.50;2.00;;;19.10;99.90;;;;;;5090492;28;20199;-82
2023/05/12 10:02:07;;;;;;;6.00;2.30;;;19.00;99.90;;;;;;5091412;28;20309;-82
2023/05/12 10:04:48;;;;;;;6.53;2.55;;;19.00;99.90;;;;;;5090878;28;20536;-83
2023/05/12 10:07:21;;;;;;;5.68;2.17;;;19.00;99.90;;;;;;5100549;28;20209;-82
2023/05/12 10:09:52;;;;;;;6.30;2.40;;;19.00;99.90;;;;;;5111357;28;20198;-82
2023/05/12 10:12:23;;;;;;;4.65;2.00;;;19.00;99.90;;;;;;5109811;28;20277;-83
2023/05/12 10:14:58;;;;;;;6.00;2.53;;;18.90;99.90;;;;;;5077061;28;20191;-83
2023/05/12 10:17:30;;;;;;;8.50;5.05;;;18.90;99.90;;;;;;5091213;28;20194;-82
2023/05/12 10:20:05;;;;;;;9.98;6.05;;;19.00;99.90;;;;;;5090906;28;20267;-82
2023/05/12 10:22:40;;;;;;;12.38;6.47;;;19.00;99.90;;;;;;5084280;28;20244;-82
2023/05/12 10:25:12;;;;;;;18.17;10.25;;;18.90;99.90;;;;;;5074115;28;20593;-83
2023/05/12 10:27:44;;;;;;;17.25;9.52;;;18.90;99.90;;;;;;5070963;28;20286;-82
2023/05/12 10:30:16;;;;;;;12.88;6.70;;;18.90;99.90;;;;;;5063326;28;20257;-82
2023/05/12 10:32:51;;;;;;;10.07;5.03;;;18.90;99.90;;;;;;5071500;28;20196;-81
2023/05/12 10:35:35;;;;;;;8.77;4.38;;;18.80;99.90;;;;;;5077519;28;20282;-82
2023/05/12 10:38:10;;;;;;;7.70;3.70;;;18.90;99.90;;;;;;5079113;28;20196;-83
2023/05/12 10:41:11;;;;;;;7.45;3.67;;;18.80;99.90;;;;;;5075356;28;20227;-82
2023/05/12 10:43:44;;;;;;;8.25;3.28;;;18.80;99.90;;;;;;5091272;28;20234;-82
2023/05/12 10:46:20;;;;;;;7.05;3.47;;;18.80;99.90;;;;;;5091298;28;20203;-82
2023/05/12 10:48:56;;;;;;;5.28;2.80;;;18.80;99.90;;;;;;5091337;28;20197;-82
2023/05/12 10:51:31;;;;;;;5.10;2.33;;;18.80;99.90;;;;;;5090898;28;20207;-83
2023/05/12 10:54:04;;;;;;;7.00;3.17;;;18.80;99.90;;;;;;5090590;28;20672;-82
2023/05/12 10:56:45;;;;;;;6.22;2.80;;;18.80;99.90;;;;;;5090751;28;20199;-82
2023/05/12 10:59:18;;;;;;;7.65;3.13;;;18.70;99.90;;;;;;5092024;28;20203;-83
2023/05/12 11:02:04;;;;;;;7.47;3.15;;;18.70;99.90;;;;;;5096356;28;20698;-83
2023/05/12 11:04:46;;;;;;;7.47;3.30;;;18.70;99.90;;;;;;5093541;28;20589;-82
2023/05/12 11:07:25;;;;;;;6.15;3.10;;;18.60;99.90;;;;;;5097340;28;20191;-83
2023/05/12 11:10:01;;;;;;;8.85;2.72;;;18.60;99.90;;;;;;5095487;28;20282;-83
2023/05/12 11:12:34;;;;;;;4.90;2.30;;;18.60;99.90;;;;;;5100690;28;20266;-83
2023/05/12 11:15:10;;;;;;;6.45;2.53;;;18.60;99.90;;;;;;5102351;28;20199;-83
2023/05/12 11:17:45;;;;;;;5.38;2.58;;;18.60;99.90;;;;;;5079794;28;20227;-83
2023/05/12 11:20:25;;;;;;;7.53;2.58;;;18.60;99.90;;;;;;5081557;28;20709;-83
2023/05/12 11:23:00;;;;;;;6.78;2.63;;;18.60;99.90;;;;;;5095858;28;20666;-83
2023/05/12 11:25:40;;;;;;;6.97;2.67;;;18.60;99.90;;;;;;5102505;28;20203;-86
2023/05/12 11:28:14;;;;;;;4.95;2.35;;;18.60;99.90;;;;;;5077340;28;20302;-83
2023/05/12 11:30:54;;;;;;;8.55;2.70;;;18.60;99.90;;;;;;5078362;28;20184;-82
2023/05/12 11:33:28;;;;;;;6.05;2.40;;;18.60;99.90;;;;;;5079958;28;20196;-83
2023/05/12 11:35:59;;;;;;;6.15;2.80;;;18.60;99.90;;;;;;5081395;28;20757;-81
2023/05/12 11:38:33;;;;;;;8.93;3.35;;;18.60;99.90;;;;;;5077282;28;20196;-82
2023/05/12 11:41:09;;;;;;;7.50;3.25;;;18.50;99.90;;;;;;5078989;28;20291;-82
2023/05/12 11:43:41;;;;;;;9.88;3.92;;;18.50;99.90;;;;;;5080749;28;20258;-82
2023/05/12 11:46:12;;;;;;;11.50;3.95;;;18.50;99.90;;;;;;5087834;28;20663;-82
2023/05/12 11:48:43;;;;;;;8.43;4.25;;;18.50;99.90;;;;;;5085301;28;20288;-82
2023/05/12 11:51:16;;;;;;;8.57;4.07;;;18.40;99.90;;;;;;5082483;28;20204;-82
2023/05/12 11:53:51;;;;;;;10.23;4.45;;;18.40;99.90;;;;;;5080145;28;20211;-82
2023/05/12 11:56:23;;;;;;;9.88;4.80;;;18.40;99.90;;;;;;5080126;28;20542;-83
2023/05/12 11:59:02;;;;;;;9.02;4.32;;;18.40;99.90;;;;;;5079054;28;20207;-82
2023/05/12 12:01:34;;;;;;;11.18;5.20;;;18.30;99.90;;;;;;5077588;28;20686;-83
2023/05/12 12:04:06;;;;;;;13.02;5.05;;;18.30;99.90;;;;;;5077853;28;20220;-83
2023/05/12 12:06:47;;;;;;;11.77;5.13;;;18.30;99.90;;;;;;5078052;28;20206;-83
2023/05/12 12:09:20;;;;;;;11.80;5.00;;;18.30;99.90;;;;;;5079903;28;20231;-83
2023/05/12 12:11:52;;;;;;;11.93;5.07;;;18.30;99.90;;;;;;5080800;28;20286;-82
2023/05/12 12:14:23;;;;;;;9.93;4.75;;;18.30;99.90;;;;;;5076256;28;20188;-83
2023/05/12 12:16:58;;;;;;;9.00;5.07;;;18.30;99.90;;;;;;5076181;28;20617;-81
2023/05/12 12:19:30;;;;;;;14.48;5.10;;;18.30;99.90;;;;;;5075882;28;20298;-82
2023/05/12 12:22:02;;;;;;;11.75;5.20;;;18.30;99.90;;;;;;5075856;28;20219;-81
2023/05/12 12:24:39;;;;;;;12.02;5.25;;;18.20;99.90;;;;;;5071431;28;20207;-81
2023/05/12 12:27:10;;;;;;;9.15;4.97;;;18.30;99.90;;;;;;5077348;28;20215;-82
2023/05/12 12:29:41;;;;;;;10.73;5.32;;;18.20;99.90;;;;;;5073968;28;20283;-82
2023/05/12 12:32:16;;;;;;;9.60;4.90;;;18.20;99.90;;;;;;5086442;28;20207;-83
2023/05/12 12:34:47;;;;;;;10.52;4.68;;;18.20;99.90;;;;;;5085200;28;20199;-83
2023/05/12 12:37:19;;;;;;;11.00;4.90;;;18.20;99.90;;;;;;5082253;28;20207;-82
2023/05/12 12:39:52;;;;;;;10.23;4.68;;;18.20;99.90;;;;;;5081931;28;20196;-83
2023/05/12 12:42:24;;;;;;;11.65;4.95;;;18.20;99.90;;;;;;5083932;28;20212;-83
2023/05/12 12:44:56;;;;;;;8.50;4.72;;;18.20;99.90;;;;;;5083065;28;20190;-83
2023/05/12 12:47:27;;;;;;;12.38;4.93;;;18.20;99.90;;;;;;5083532;28;20278;-84
2023/05/12 12:50:00;;;;;;;8.05;4.95;;;18.10;99.90;;;;;;5081823;28;20234;-83
2023/05/12 12:52:32;;;;;;;12.68;4.95;;;18.10;99.90;;;;;;5088837;28;20210;-82
2023/05/12 12:55:06;;;;;;;9.52;4.43;;;18.10;99.90;;;;;;5085551;28;20222;-81
2023/05/12 12:57:39;;;;;;;9.57;5.05;;;18.10;99.90;;;;;;5082288;28;20204;-82
2023/05/12 13:00:11;;;;;;;7.30;4.43;;;18.10;99.90;;;;;;5079351;28;20198;-82
2023/05/12 13:02:43;;;;;;;8.00;4.55;;;18.00;99.90;;;;;;5079570;28;20232;-84
2023/05/12 13:05:15;;;;;;;10.30;5.05;;;18.00;99.90;;;;;;5080523;28;20212;-83
2023/05/12 13:07:46;;;;;;;11.88;4.70;;;18.00;99.90;;;;;;5083412;28;20287;-83
2023/05/12 13:10:21;;;;;;;8.88;4.47;;;18.00;99.90;;;;;;5081376;28;20180;-83
2023/05/12 13:12:52;;;;;;;7.72;4.22;;;18.00;99.90;;;;;;5080029;28;20575;-83
2023/05/12 13:15:23;;;;;;;10.18;4.53;;;17.90;99.90;;;;;;5072328;28;20218;-82
2023/05/12 13:17:54;;;;;;;8.35;4.25;;;17.90;99.90;;;;;;5071549;28;20206;-82